Terminal Aerodrome Forecast
Issued by NWS Charleston, WV

Home | Current Version | Previous Version | Text Only | Print | Product List | Glossary On
Versions: 1 2 3 4 5 6 7 8 9 10 11 12 13 14 15 16 17 18 19 20
414
FTUS41 KRLX 040532
TAFPKB
TAF
KPKB 040532Z 0406/0506 00000KT P6SM SCT015 BKN025
      TEMPO 0406/0409 3SM BR SCT025
     FM041300 00000KT 6SM BR SCT015 BKN025
     FM041500 VRB03KT P6SM BKN035
     FM042200 21005KT 6SM SHRA BR VCTS BKN040CB
      AMD NOT SKED=

USA.gov is the U.S. government's official web portal to all federal, state and local government web resources and services.